Terminal Aerodrome Forecast
Issued by NWS

Home | Current Version | Previous Version | Graphics & Text | Print | Product List | Glossary On
Versions: 1 2 3 4 5 6 7 8 9 10 11 12 13 14 15 16 17 18
823
FTUS41 KCLE 202321
TAFFDY
TAF
KFDY 202321Z 2100/2124 00000KT P6SM SKC
     FM211400 24008KT P6SM SCT060
     FM211800 23012KT P6SM SCT050
      AMD NOT SKED=

USA.gov is the U.S. government's official web portal to all federal, state and local government web resources and services.